sensor_id;sensor_type;location;lat;lon;timestamp;temperature;humidity
68274;SHT30;55104;47.356;19.448;2023-07-30T00:01:35;20.31;81.05
68274;SHT30;55104;47.356;19.448;2023-07-30T00:04:38;20.27;81.58
68274;SHT30;55104;47.356;19.448;2023-07-30T00:07:40;20.31;81.58
68274;SHT30;55104;47.356;19.448;2023-07-30T00:10:42;20.36;81.32
68274;SHT30;55104;47.356;19.448;2023-07-30T00:13:44;20.34;81.48
68274;SHT30;55104;47.356;19.448;2023-07-30T00:16:48;20.34;81.73
68274;SHT30;55104;47.356;19.448;2023-07-30T00:19:50;20.33;81.80
68274;SHT30;55104;47.356;19.448;2023-07-30T00:22:52;20.34;81.81
68274;SHT30;55104;47.356;19.448;2023-07-30T00:25:54;20.34;81.71
68274;SHT30;55104;47.356;19.448;2023-07-30T00:28:56;20.37;81.58
68274;SHT30;55104;47.356;19.448;2023-07-30T00:31:58;20.37;81.68
68274;SHT30;55104;47.356;19.448;2023-07-30T00:35:02;20.37;81.75
68274;SHT30;55104;47.356;19.448;2023-07-30T00:38:05;20.37;81.65
68274;SHT30;55104;47.356;19.448;2023-07-30T00:41:07;20.36;81.32
68274;SHT30;55104;47.356;19.448;2023-07-30T00:44:09;20.34;81.57
68274;SHT30;55104;47.356;19.448;2023-07-30T00:47:11;20.33;81.73
68274;SHT30;55104;47.356;19.448;2023-07-30T00:50:15;20.34;81.65
68274;SHT30;55104;47.356;19.448;2023-07-30T00:53:19;20.37;81.81
68274;SHT30;55104;47.356;19.448;2023-07-30T00:56:23;20.37;81.79
68274;SHT30;55104;47.356;19.448;2023-07-30T00:59:26;20.38;81.88
68274;SHT30;55104;47.356;19.448;2023-07-30T01:02:29;20.38;81.91
68274;SHT30;55104;47.356;19.448;2023-07-30T01:05:31;20.41;81.99
68274;SHT30;55104;47.356;19.448;2023-07-30T01:08:34;20.45;81.74
68274;SHT30;55104;47.356;19.448;2023-07-30T01:11:38;20.45;81.77
68274;SHT30;55104;47.356;19.448;2023-07-30T01:14:41;20.47;81.72
68274;SHT30;55104;47.356;19.448;2023-07-30T01:17:45;20.47;82.00
68274;SHT30;55104;47.356;19.448;2023-07-30T01:20:47;20.41;81.85
68274;SHT30;55104;47.356;19.448;2023-07-30T01:23:49;20.37;81.93
68274;SHT30;55104;47.356;19.448;2023-07-30T01:27:05;20.37;82.41
68274;SHT30;55104;47.356;19.448;2023-07-30T01:30:18;20.40;82.33
68274;SHT30;55104;47.356;19.448;2023-07-30T01:33:24;20.33;82.71
68274;SHT30;55104;47.356;19.448;2023-07-30T01:36:28;20.33;82.83
68274;SHT30;55104;47.356;19.448;2023-07-30T01:39:32;20.37;82.80
68274;SHT30;55104;47.356;19.448;2023-07-30T01:42:34;20.36;82.88
68274;SHT30;55104;47.356;19.448;2023-07-30T01:45:36;20.31;82.73
68274;SHT30;55104;47.356;19.448;2023-07-30T01:48:38;20.34;82.92
68274;SHT30;55104;47.356;19.448;2023-07-30T01:51:40;20.33;83.09
68274;SHT30;55104;47.356;19.448;2023-07-30T01:54:42;20.29;83.18
68274;SHT30;55104;47.356;19.448;2023-07-30T01:57:44;20.29;83.17
68274;SHT30;55104;47.356;19.448;2023-07-30T02:00:47;20.34;83.11
68274;SHT30;55104;47.356;19.448;2023-07-30T02:03:49;20.37;82.82
68274;SHT30;55104;47.356;19.448;2023-07-30T02:06:51;20.34;83.52
68274;SHT30;55104;47.356;19.448;2023-07-30T02:09:53;20.31;83.56
68274;SHT30;55104;47.356;19.448;2023-07-30T02:12:55;20.31;83.45
68274;SHT30;55104;47.356;19.448;2023-07-30T02:15:57;20.29;83.39
68274;SHT30;55104;47.356;19.448;2023-07-30T02:19:00;20.27;83.29
68274;SHT30;55104;47.356;19.448;2023-07-30T02:22:02;20.29;83.17
68274;SHT30;55104;47.356;19.448;2023-07-30T02:25:05;20.33;83.32
68274;SHT30;55104;47.356;19.448;2023-07-30T02:28:07;20.31;83.13
68274;SHT30;55104;47.356;19.448;2023-07-30T02:31:09;20.33;83.09
68274;SHT30;55104;47.356;19.448;2023-07-30T02:34:11;20.33;83.37
68274;SHT30;55104;47.356;19.448;2023-07-30T02:37:13;20.30;83.21
68274;SHT30;55104;47.356;19.448;2023-07-30T02:40:16;20.33;83.20
68274;SHT30;55104;47.356;19.448;2023-07-30T02:43:18;20.34;83.10
68274;SHT30;55104;47.356;19.448;2023-07-30T02:46:20;20.29;83.17
68274;SHT30;55104;47.356;19.448;2023-07-30T02:49:22;20.27;83.21
68274;SHT30;55104;47.356;19.448;2023-07-30T02:52:24;20.30;83.54
68274;SHT30;55104;47.356;19.448;2023-07-30T02:55:26;20.24;83.54
68274;SHT30;55104;47.356;19.448;2023-07-30T02:58:28;20.21;83.56
68274;SHT30;55104;47.356;19.448;2023-07-30T03:01:30;20.20;83.55
68274;SHT30;55104;47.356;19.448;2023-07-30T03:04:33;20.14;83.54
68274;SHT30;55104;47.356;19.448;2023-07-30T03:07:36;20.10;83.37
68274;SHT30;55104;47.356;19.448;2023-07-30T03:10:38;20.12;83.56
68274;SHT30;55104;47.356;19.448;2023-07-30T03:13:40;20.10;83.72
68274;SHT30;55104;47.356;19.448;2023-07-30T03:16:42;20.09;83.72
68274;SHT30;55104;47.356;19.448;2023-07-30T03:19:46;20.08;83.72
68274;SHT30;55104;47.356;19.448;2023-07-30T03:22:48;20.12;83.86
68274;SHT30;55104;47.356;19.448;2023-07-30T03:25:50;20.09;83.76
68274;SHT30;55104;47.356;19.448;2023-07-30T03:28:52;20.12;83.83
68274;SHT30;55104;47.356;19.448;2023-07-30T03:31:55;20.14;83.74
68274;SHT30;55104;47.356;19.448;2023-07-30T03:34:57;20.10;83.71
68274;SHT30;55104;47.356;19.448;2023-07-30T03:37:59;20.13;83.92
68274;SHT30;55104;47.356;19.448;2023-07-30T03:41:04;20.14;83.90
68274;SHT30;55104;47.356;19.448;2023-07-30T03:44:06;20.17;83.58
68274;SHT30;55104;47.356;19.448;2023-07-30T03:47:09;20.20;83.72
68274;SHT30;55104;47.356;19.448;2023-07-30T03:50:11;20.23;83.77
68274;SHT30;55104;47.356;19.448;2023-07-30T03:53:13;20.33;83.84
68274;SHT30;55104;47.356;19.448;2023-07-30T03:56:16;20.33;83.39
68274;SHT30;55104;47.356;19.448;2023-07-30T03:59:18;20.38;83.16
68274;SHT30;55104;47.356;19.448;2023-07-30T04:02:20;20.37;83.26
68274;SHT30;55104;47.356;19.448;2023-07-30T04:05:22;20.40;83.28
68274;SHT30;55104;47.356;19.448;2023-07-30T04:08:24;20.36;83.06
68274;SHT30;55104;47.356;19.448;2023-07-30T04:11:26;20.37;82.92
68274;SHT30;55104;47.356;19.448;2023-07-30T04:14:28;20.37;82.94
68274;SHT30;55104;47.356;19.448;2023-07-30T04:17:31;20.34;83.01
68274;SHT30;55104;47.356;19.448;2023-07-30T04:20:33;20.40;82.90
68274;SHT30;55104;47.356;19.448;2023-07-30T04:23:36;20.43;82.60
68274;SHT30;55104;47.356;19.448;2023-07-30T04:26:39;20.44;82.65
68274;SHT30;55104;47.356;19.448;2023-07-30T04:29:41;20.43;82.80
68274;SHT30;55104;47.356;19.448;2023-07-30T04:32:43;20.45;82.81
68274;SHT30;55104;47.356;19.448;2023-07-30T04:35:45;20.45;82.97
68274;SHT30;55104;47.356;19.448;2023-07-30T04:38:47;20.54;83.06
68274;SHT30;55104;47.356;19.448;2023-07-30T04:41:49;20.59;82.75
68274;SHT30;55104;47.356;19.448;2023-07-30T04:44:51;20.64;82.29
68274;SHT30;55104;47.356;19.448;2023-07-30T04:47:53;20.67;82.34
68274;SHT30;55104;47.356;19.448;2023-07-30T04:50:56;20.75;82.15
68274;SHT30;55104;47.356;19.448;2023-07-30T04:53:59;20.79;81.78
68274;SHT30;55104;47.356;19.448;2023-07-30T04:57:02;20.85;81.86
68274;SHT30;55104;47.356;19.448;2023-07-30T05:00:05;20.96;81.56
68274;SHT30;55104;47.356;19.448;2023-07-30T05:03:08;21.06;81.26
68274;SHT30;55104;47.356;19.448;2023-07-30T05:06:12;21.14;80.98
68274;SHT30;55104;47.356;19.448;2023-07-30T05:09:14;21.24;80.77
68274;SHT30;55104;47.356;19.448;2023-07-30T05:12:16;21.33;80.39
68274;SHT30;55104;47.356;19.448;2023-07-30T05:15:18;21.43;80.32
68274;SHT30;55104;47.356;19.448;2023-07-30T05:18:20;21.50;80.48
68274;SHT30;55104;47.356;19.448;2023-07-30T05:21:22;21.55;80.72
68274;SHT30;55104;47.356;19.448;2023-07-30T05:24:24;21.57;80.18
68274;SHT30;55104;47.356;19.448;2023-07-30T05:27:26;21.64;80.26
68274;SHT30;55104;47.356;19.448;2023-07-30T05:30:30;21.71;79.85
68274;SHT30;55104;47.356;19.448;2023-07-30T05:33:32;21.78;79.79
68274;SHT30;55104;47.356;19.448;2023-07-30T05:36:35;21.82;79.63
68274;SHT30;55104;47.356;19.448;2023-07-30T05:39:37;21.92;79.36
68274;SHT30;55104;47.356;19.448;2023-07-30T05:42:39;21.98;79.12
68274;SHT30;55104;47.356;19.448;2023-07-30T05:45:41;22.08;78.93
68274;SHT30;55104;47.356;19.448;2023-07-30T05:48:43;22.13;79.18
68274;SHT30;55104;47.356;19.448;2023-07-30T05:51:45;22.12;79.05
68274;SHT30;55104;47.356;19.448;2023-07-30T05:54:47;22.22;78.82
68274;SHT30;55104;47.356;19.448;2023-07-30T05:57:50;22.35;78.58
68274;SHT30;55104;47.356;19.448;2023-07-30T06:00:52;22.37;78.41
68274;SHT30;55104;47.356;19.448;2023-07-30T06:03:54;22.44;78.42
68274;SHT30;55104;47.356;19.448;2023-07-30T06:06:59;22.49;78.22
68274;SHT30;55104;47.356;19.448;2023-07-30T06:10:01;22.54;78.05
68274;SHT30;55104;47.356;19.448;2023-07-30T06:13:04;22.63;78.18
68274;SHT30;55104;47.356;19.448;2023-07-30T06:16:06;22.64;77.77
68274;SHT30;55104;47.356;19.448;2023-07-30T06:19:08;22.74;78.29
68274;SHT30;55104;47.356;19.448;2023-07-30T06:22:11;22.84;78.70
68274;SHT30;55104;47.356;19.448;2023-07-30T06:25:13;22.94;76.84
68274;SHT30;55104;47.356;19.448;2023-07-30T06:28:15;23.20;76.39
68274;SHT30;55104;47.356;19.448;2023-07-30T06:31:17;23.34;75.59
68274;SHT30;55104;47.356;19.448;2023-07-30T06:34:19;23.50;75.33
68274;SHT30;55104;47.356;19.448;2023-07-30T06:37:21;23.63;75.38
68274;SHT30;55104;47.356;19.448;2023-07-30T06:40:24;23.64;74.93
68274;SHT30;55104;47.356;19.448;2023-07-30T06:43:26;23.73;74.15
68274;SHT30;55104;47.356;19.448;2023-07-30T06:46:28;23.84;73.65
68274;SHT30;55104;47.356;19.448;2023-07-30T06:49:30;24.00;73.90
68274;SHT30;55104;47.356;19.448;2023-07-30T06:52:32;24.02;73.55
68274;SHT30;55104;47.356;19.448;2023-07-30T06:55:34;24.43;72.99
68274;SHT30;55104;47.356;19.448;2023-07-30T06:58:36;24.59;72.26
68274;SHT30;55104;47.356;19.448;2023-07-30T07:01:41;24.94;70.89
68274;SHT30;55104;47.356;19.448;2023-07-30T07:04:44;25.08;69.00
68274;SHT30;55104;47.356;19.448;2023-07-30T07:07:46;25.43;67.26
68274;SHT30;55104;47.356;19.448;2023-07-30T07:10:49;25.52;68.34
68274;SHT30;55104;47.356;19.448;2023-07-30T07:13:51;25.91;66.04
68274;SHT30;55104;47.356;19.448;2023-07-30T07:16:54;26.20;65.55
68274;SHT30;55104;47.356;19.448;2023-07-30T07:19:59;26.09;64.26
68274;SHT30;55104;47.356;19.448;2023-07-30T07:23:01;26.01;64.74
68274;SHT30;55104;47.356;19.448;2023-07-30T07:26:04;26.05;65.04
68274;SHT30;55104;47.356;19.448;2023-07-30T07:29:06;25.93;65.11
68274;SHT30;55104;47.356;19.448;2023-07-30T07:32:08;25.88;65.88
68274;SHT30;55104;47.356;19.448;2023-07-30T07:35:10;25.87;64.93
68274;SHT30;55104;47.356;19.448;2023-07-30T07:38:12;25.87;64.71
68274;SHT30;55104;47.356;19.448;2023-07-30T07:41:17;25.80;65.25
68274;SHT30;55104;47.356;19.448;2023-07-30T07:44:19;25.80;64.90
68274;SHT30;55104;47.356;19.448;2023-07-30T07:47:21;25.83;65.17
68274;SHT30;55104;47.356;19.448;2023-07-30T07:50:24;25.96;64.86
68274;SHT30;55104;47.356;19.448;2023-07-30T07:53:26;25.70;65.32
68274;SHT30;55104;47.356;19.448;2023-07-30T07:56:30;25.74;66.00
68274;SHT30;55104;47.356;19.448;2023-07-30T07:59:32;25.56;65.64
68274;SHT30;55104;47.356;19.448;2023-07-30T08:02:34;25.42;66.25
68274;SHT30;55104;47.356;19.448;2023-07-30T08:05:36;25.24;67.58
68274;SHT30;55104;47.356;19.448;2023-07-30T08:08:42;25.22;66.88
68274;SHT30;55104;47.356;19.448;2023-07-30T08:11:44;25.25;66.69
68274;SHT30;55104;47.356;19.448;2023-07-30T08:14:46;25.24;66.73
68274;SHT30;55104;47.356;19.448;2023-07-30T08:17:48;25.24;67.08
68274;SHT30;55104;47.356;19.448;2023-07-30T08:20:50;25.32;66.99
68274;SHT30;55104;47.356;19.448;2023-07-30T08:23:53;25.39;67.29
68274;SHT30;55104;47.356;19.448;2023-07-30T08:26:55;25.35;67.40
68274;SHT30;55104;47.356;19.448;2023-07-30T08:29:57;25.35;66.78
68274;SHT30;55104;47.356;19.448;2023-07-30T08:32:59;25.28;67.85
68274;SHT30;55104;47.356;19.448;2023-07-30T08:36:01;25.22;67.05
68274;SHT30;55104;47.356;19.448;2023-07-30T08:39:04;25.25;67.71
68274;SHT30;55104;47.356;19.448;2023-07-30T08:42:06;25.18;68.45
68274;SHT30;55104;47.356;19.448;2023-07-30T08:45:08;25.12;69.24
68274;SHT30;55104;47.356;19.448;2023-07-30T08:48:11;25.21;69.77
68274;SHT30;55104;47.356;19.448;2023-07-30T08:51:13;25.19;70.11
68274;SHT30;55104;47.356;19.448;2023-07-30T08:54:16;25.14;69.33
68274;SHT30;55104;47.356;19.448;2023-07-30T08:57:19;24.94;69.60
68274;SHT30;55104;47.356;19.448;2023-07-30T09:00:24;24.94;69.63
68274;SHT30;55104;47.356;19.448;2023-07-30T09:03:27;25.03;70.45
68274;SHT30;55104;47.356;19.448;2023-07-30T09:06:32;25.05;69.82
68274;SHT30;55104;47.356;19.448;2023-07-30T09:09:35;25.01;70.15
68274;SHT30;55104;47.356;19.448;2023-07-30T09:12:37;24.86;71.83
68274;SHT30;55104;47.356;19.448;2023-07-30T09:15:39;24.57;72.97
68274;SHT30;55104;47.356;19.448;2023-07-30T09:18:44;24.53;72.51
68274;SHT30;55104;47.356;19.448;2023-07-30T09:21:46;24.23;71.29
68274;SHT30;55104;47.356;19.448;2023-07-30T09:24:48;24.00;71.78
68274;SHT30;55104;47.356;19.448;2023-07-30T09:27:52;23.85;72.32
68274;SHT30;55104;47.356;19.448;2023-07-30T09:31:03;23.42;72.49
68274;SHT30;55104;47.356;19.448;2023-07-30T09:34:23;23.30;72.45
68274;SHT30;55104;47.356;19.448;2023-07-30T09:37:26;23.49;72.56
68274;SHT30;55104;47.356;19.448;2023-07-30T09:40:33;23.29;72.95
68274;SHT30;55104;47.356;19.448;2023-07-30T09:43:35;23.34;73.59
68274;SHT30;55104;47.356;19.448;2023-07-30T09:46:45;23.22;73.87
68274;SHT30;55104;47.356;19.448;2023-07-30T09:49:48;23.01;75.41
68274;SHT30;55104;47.356;19.448;2023-07-30T09:52:50;23.22;75.19
68274;SHT30;55104;47.356;19.448;2023-07-30T09:55:52;23.12;74.91
68274;SHT30;55104;47.356;19.448;2023-07-30T09:58:54;23.06;74.67
68274;SHT30;55104;47.356;19.448;2023-07-30T10:01:57;22.95;75.29
68274;SHT30;55104;47.356;19.448;2023-07-30T10:05:00;22.84;75.76
68274;SHT30;55104;47.356;19.448;2023-07-30T10:08:14;22.68;77.07
68274;SHT30;55104;47.356;19.448;2023-07-30T10:11:19;22.58;76.71
68274;SHT30;55104;47.356;19.448;2023-07-30T10:14:22;22.64;76.87
68274;SHT30;55104;47.356;19.448;2023-07-30T10:17:25;22.41;76.97
68274;SHT30;55104;47.356;19.448;2023-07-30T10:20:28;22.39;77.66
68274;SHT30;55104;47.356;19.448;2023-07-30T10:23:32;22.17;79.45
68274;SHT30;55104;47.356;19.448;2023-07-30T10:26:35;22.17;79.76
68274;SHT30;55104;47.356;19.448;2023-07-30T10:29:40;21.94;81.66
68274;SHT30;55104;47.356;19.448;2023-07-30T10:35:57;21.79;82.82
68274;SHT30;55104;47.356;19.448;2023-07-30T10:39:17;21.88;83.58
68274;SHT30;55104;47.356;19.448;2023-07-30T10:42:19;22.02;83.96
68274;SHT30;55104;47.356;19.448;2023-07-30T10:45:25;21.99;82.19
68274;SHT30;55104;47.356;19.448;2023-07-30T10:48:36;22.03;82.24
68274;SHT30;55104;47.356;19.448;2023-07-30T10:51:38;22.03;82.67
68274;SHT30;55104;47.356;19.448;2023-07-30T10:54:41;22.09;82.29
68274;SHT30;55104;47.356;19.448;2023-07-30T10:57:43;22.12;82.71
68274;SHT30;55104;47.356;19.448;2023-07-30T11:00:45;22.23;82.56
68274;SHT30;55104;47.356;19.448;2023-07-30T11:03:49;22.22;82.56
68274;SHT30;55104;47.356;19.448;2023-07-30T11:06:53;22.17;82.81
68274;SHT30;55104;47.356;19.448;2023-07-30T11:10:00;22.24;80.62
68274;SHT30;55104;47.356;19.448;2023-07-30T11:13:03;22.08;82.74
68274;SHT30;55104;47.356;19.448;2023-07-30T11:16:06;22.24;82.89
68274;SHT30;55104;47.356;19.448;2023-07-30T11:19:09;22.30;80.59
68274;SHT30;55104;47.356;19.448;2023-07-30T11:22:13;22.51;81.68
68274;SHT30;55104;47.356;19.448;2023-07-30T11:25:16;22.58;80.51
68274;SHT30;55104;47.356;19.448;2023-07-30T11:28:29;22.72;79.96
68274;SHT30;55104;47.356;19.448;2023-07-30T11:31:31;22.81;79.97
68274;SHT30;55104;47.356;19.448;2023-07-30T11:34:33;22.74;79.89
68274;SHT30;55104;47.356;19.448;2023-07-30T11:37:41;22.60;79.91
68274;SHT30;55104;47.356;19.448;2023-07-30T11:40:44;22.75;81.53
68274;SHT30;55104;47.356;19.448;2023-07-30T11:43:46;22.77;79.47
68274;SHT30;55104;47.356;19.448;2023-07-30T11:46:54;22.95;80.36
68274;SHT30;55104;47.356;19.448;2023-07-30T11:49:57;22.87;79.21
68274;SHT30;55104;47.356;19.448;2023-07-30T11:52:59;22.83;77.31
68274;SHT30;55104;47.356;19.448;2023-07-30T11:56:03;22.68;79.54
68274;SHT30;55104;47.356;19.448;2023-07-30T11:59:06;22.87;79.26
68274;SHT30;55104;47.356;19.448;2023-07-30T12:02:09;22.95;76.71
68274;SHT30;55104;47.356;19.448;2023-07-30T12:05:12;23.12;76.24
68274;SHT30;55104;47.356;19.448;2023-07-30T12:08:16;23.18;75.74
68274;SHT30;55104;47.356;19.448;2023-07-30T12:11:19;23.11;75.20
68274;SHT30;55104;47.356;19.448;2023-07-30T12:14:26;23.04;75.54
68274;SHT30;55104;47.356;19.448;2023-07-30T12:17:32;23.08;77.88
68274;SHT30;55104;47.356;19.448;2023-07-30T12:20:34;23.13;78.15
68274;SHT30;55104;47.356;19.448;2023-07-30T12:23:37;22.90;78.60
68274;SHT30;55104;47.356;19.448;2023-07-30T12:26:40;22.95;79.90
68274;SHT30;55104;47.356;19.448;2023-07-30T12:29:42;22.90;79.64
68274;SHT30;55104;47.356;19.448;2023-07-30T12:32:46;22.92;79.87
68274;SHT30;55104;47.356;19.448;2023-07-30T12:35:48;22.91;79.82
68274;SHT30;55104;47.356;19.448;2023-07-30T12:38:52;23.06;80.51
68274;SHT30;55104;47.356;19.448;2023-07-30T12:41:55;23.27;79.93
68274;SHT30;55104;47.356;19.448;2023-07-30T12:44:57;23.11;80.02
68274;SHT30;55104;47.356;19.448;2023-07-30T12:48:00;23.11;79.91
68274;SHT30;55104;47.356;19.448;2023-07-30T12:51:03;23.15;80.07
68274;SHT30;55104;47.356;19.448;2023-07-30T12:54:05;23.18;81.00
68274;SHT30;55104;47.356;19.448;2023-07-30T12:57:07;23.06;81.15
68274;SHT30;55104;47.356;19.448;2023-07-30T13:00:10;23.13;81.56
68274;SHT30;55104;47.356;19.448;2023-07-30T13:03:12;23.20;80.59
68274;SHT30;55104;47.356;19.448;2023-07-30T13:06:15;23.29;80.98
68274;SHT30;55104;47.356;19.448;2023-07-30T13:09:17;23.30;80.93
68274;SHT30;55104;47.356;19.448;2023-07-30T13:12:19;23.53;79.30
68274;SHT30;55104;47.356;19.448;2023-07-30T13:15:21;23.50;78.66
68274;SHT30;55104;47.356;19.448;2023-07-30T13:18:23;23.81;78.70
68274;SHT30;55104;47.356;19.448;2023-07-30T13:21:25;24.09;78.36
68274;SHT30;55104;47.356;19.448;2023-07-30T13:24:28;24.71;76.56
68274;SHT30;55104;47.356;19.448;2023-07-30T13:27:33;25.16;74.18
68274;SHT30;55104;47.356;19.448;2023-07-30T13:30:38;25.42;73.83
68274;SHT30;55104;47.356;19.448;2023-07-30T13:33:40;25.22;72.43
68274;SHT30;55104;47.356;19.448;2023-07-30T13:36:42;25.46;71.97
68274;SHT30;55104;47.356;19.448;2023-07-30T13:39:44;25.49;71.94
68274;SHT30;55104;47.356;19.448;2023-07-30T13:42:46;25.31;71.78
68274;SHT30;55104;47.356;19.448;2023-07-30T13:45:48;25.24;71.96
68274;SHT30;55104;47.356;19.448;2023-07-30T13:48:52;24.90;72.34
68274;SHT30;55104;47.356;19.448;2023-07-30T13:51:54;25.33;73.46
68274;SHT30;55104;47.356;19.448;2023-07-30T13:54:56;25.62;71.16
68274;SHT30;55104;47.356;19.448;2023-07-30T13:57:58;25.71;70.52
68274;SHT30;55104;47.356;19.448;2023-07-30T14:01:01;26.02;71.46
68274;SHT30;55104;47.356;19.448;2023-07-30T14:04:03;26.35;69.54
68274;SHT30;55104;47.356;19.448;2023-07-30T14:07:05;26.46;67.54
68274;SHT30;55104;47.356;19.448;2023-07-30T14:10:09;26.46;67.06
68274;SHT30;55104;47.356;19.448;2023-07-30T14:13:11;26.56;66.87
68274;SHT30;55104;47.356;19.448;2023-07-30T14:16:13;26.72;66.74
68274;SHT30;55104;47.356;19.448;2023-07-30T14:19:15;27.01;65.57
68274;SHT30;55104;47.356;19.448;2023-07-30T14:22:18;27.08;65.77
68274;SHT30;55104;47.356;19.448;2023-07-30T14:25:20;26.96;66.29
68274;SHT30;55104;47.356;19.448;2023-07-30T14:28:22;26.87;66.66
68274;SHT30;55104;47.356;19.448;2023-07-30T14:31:24;26.53;67.88
68274;SHT30;55104;47.356;19.448;2023-07-30T14:34:26;26.43;67.97
68274;SHT30;55104;47.356;19.448;2023-07-30T14:37:29;26.56;66.28
68274;SHT30;55104;47.356;19.448;2023-07-30T14:40:32;26.41;66.41
68274;SHT30;55104;47.356;19.448;2023-07-30T14:43:34;26.55;67.58
68274;SHT30;55104;47.356;19.448;2023-07-30T14:46:36;26.73;65.61
68274;SHT30;55104;47.356;19.448;2023-07-30T14:49:39;26.51;65.31
68274;SHT30;55104;47.356;19.448;2023-07-30T14:52:42;26.73;65.83
68274;SHT30;55104;47.356;19.448;2023-07-30T14:55:44;26.51;65.73
68274;SHT30;55104;47.356;19.448;2023-07-30T14:58:46;26.39;65.83
68274;SHT30;55104;47.356;19.448;2023-07-30T15:01:48;26.59;65.80
68274;SHT30;55104;47.356;19.448;2023-07-30T15:04:50;26.60;63.24
68274;SHT30;55104;47.356;19.448;2023-07-30T15:07:53;26.35;63.16
68274;SHT30;55104;47.356;19.448;2023-07-30T15:10:55;26.24;63.73
68274;SHT30;55104;47.356;19.448;2023-07-30T15:13:57;26.21;64.65
68274;SHT30;55104;47.356;19.448;2023-07-30T15:16:59;26.33;64.85
68274;SHT30;55104;47.356;19.448;2023-07-30T15:20:01;26.48;63.81
68274;SHT30;55104;47.356;19.448;2023-07-30T15:23:03;26.22;64.66
68274;SHT30;55104;47.356;19.448;2023-07-30T15:26:06;25.93;66.24
68274;SHT30;55104;47.356;19.448;2023-07-30T15:29:08;26.26;65.98
68274;SHT30;55104;47.356;19.448;2023-07-30T15:32:10;26.33;64.42
68274;SHT30;55104;47.356;19.448;2023-07-30T15:35:12;26.33;64.25
68274;SHT30;55104;47.356;19.448;2023-07-30T15:38:15;26.45;65.21
68274;SHT30;55104;47.356;19.448;2023-07-30T15:41:18;26.57;64.24
68274;SHT30;55104;47.356;19.448;2023-07-30T15:44:20;26.57;64.24
68274;SHT30;55104;47.356;19.448;2023-07-30T15:47:22;26.70;64.09
68274;SHT30;55104;47.356;19.448;2023-07-30T15:50:24;26.48;63.20
68274;SHT30;55104;47.356;19.448;2023-07-30T15:53:28;26.33;64.51
68274;SHT30;55104;47.356;19.448;2023-07-30T15:56:30;26.09;64.94
68274;SHT30;55104;47.356;19.448;2023-07-30T15:59:33;25.88;65.29
68274;SHT30;55104;47.356;19.448;2023-07-30T16:02:36;25.60;66.66
68274;SHT30;55104;47.356;19.448;2023-07-30T16:05:46;25.54;66.49
68274;SHT30;55104;47.356;19.448;2023-07-30T16:08:49;25.67;67.23
68274;SHT30;55104;47.356;19.448;2023-07-30T16:11:51;25.65;66.75
68274;SHT30;55104;47.356;19.448;2023-07-30T16:14:53;25.59;66.90
68274;SHT30;55104;47.356;19.448;2023-07-30T16:17:55;25.43;66.67
68274;SHT30;55104;47.356;19.448;2023-07-30T16:21:02;25.21;67.42
68274;SHT30;55104;47.356;19.448;2023-07-30T16:24:05;25.36;67.39
68274;SHT30;55104;47.356;19.448;2023-07-30T16:27:08;25.49;67.03
68274;SHT30;55104;47.356;19.448;2023-07-30T16:30:10;25.26;66.88
68274;SHT30;55104;47.356;19.448;2023-07-30T16:33:13;25.24;67.31
68274;SHT30;55104;47.356;19.448;2023-07-30T16:36:15;25.03;68.06
68274;SHT30;55104;47.356;19.448;2023-07-30T16:39:17;24.66;68.95
68274;SHT30;55104;47.356;19.448;2023-07-30T16:42:19;24.69;69.06
68274;SHT30;55104;47.356;19.448;2023-07-30T16:45:22;24.57;69.24
68274;SHT30;55104;47.356;19.448;2023-07-30T16:48:24;24.53;69.65
68274;SHT30;55104;47.356;19.448;2023-07-30T16:51:26;24.36;70.32
68274;SHT30;55104;47.356;19.448;2023-07-30T16:54:28;24.14;70.69
68274;SHT30;55104;47.356;19.448;2023-07-30T16:57:30;24.09;70.98
68274;SHT30;55104;47.356;19.448;2023-07-30T17:00:34;24.04;71.40
68274;SHT30;55104;47.356;19.448;2023-07-30T17:03:38;23.87;72.25
68274;SHT30;55104;47.356;19.448;2023-07-30T17:06:40;23.77;72.73
68274;SHT30;55104;47.356;19.448;2023-07-30T17:09:42;23.74;72.78
68274;SHT30;55104;47.356;19.448;2023-07-30T17:12:44;23.71;72.89
68274;SHT30;55104;47.356;19.448;2023-07-30T17:15:47;23.59;73.44
68274;SHT30;55104;47.356;19.448;2023-07-30T17:18:49;23.54;73.47
68274;SHT30;55104;47.356;19.448;2023-07-30T17:21:52;23.46;73.89
68274;SHT30;55104;47.356;19.448;2023-07-30T17:24:55;23.36;73.97
68274;SHT30;55104;47.356;19.448;2023-07-30T17:27:59;23.22;74.92
68274;SHT30;55104;47.356;19.448;2023-07-30T17:31:01;23.09;75.01
68274;SHT30;55104;47.356;19.448;2023-07-30T17:34:03;23.04;75.45
68274;SHT30;55104;47.356;19.448;2023-07-30T17:37:06;23.09;75.29
68274;SHT30;55104;47.356;19.448;2023-07-30T17:40:09;22.95;75.76
68274;SHT30;55104;47.356;19.448;2023-07-30T17:43:12;22.96;75.50
68274;SHT30;55104;47.356;19.448;2023-07-30T17:46:15;22.78;75.80
68274;SHT30;55104;47.356;19.448;2023-07-30T17:49:20;22.75;75.79
68274;SHT30;55104;47.356;19.448;2023-07-30T17:52:22;22.67;76.17
68274;SHT30;55104;47.356;19.448;2023-07-30T17:55:24;22.65;76.32
68274;SHT30;55104;47.356;19.448;2023-07-30T17:58:26;22.61;76.11
68274;SHT30;55104;47.356;19.448;2023-07-30T18:01:28;22.51;76.35
68274;SHT30;55104;47.356;19.448;2023-07-30T18:04:31;22.44;76.98
68274;SHT30;55104;47.356;19.448;2023-07-30T18:07:33;22.36;76.84
68274;SHT30;55104;47.356;19.448;2023-07-30T18:10:35;22.33;77.26
68274;SHT30;55104;47.356;19.448;2023-07-30T18:13:37;22.28;77.37
68274;SHT30;55104;47.356;19.448;2023-07-30T18:16:39;22.14;77.73
68274;SHT30;55104;47.356;19.448;2023-07-30T18:19:42;22.09;78.27
68274;SHT30;55104;47.356;19.448;2023-07-30T18:22:44;22.09;78.33
68274;SHT30;55104;47.356;19.448;2023-07-30T18:25:46;21.98;78.94
68274;SHT30;55104;47.356;19.448;2023-07-30T18:28:48;21.89;79.39
68274;SHT30;55104;47.356;19.448;2023-07-30T18:31:52;21.84;79.65
68274;SHT30;55104;47.356;19.448;2023-07-30T18:34:54;21.77;79.36
68274;SHT30;55104;47.356;19.448;2023-07-30T18:37:57;21.69;79.64
68274;SHT30;55104;47.356;19.448;2023-07-30T18:41:05;21.67;79.79
68274;SHT30;55104;47.356;19.448;2023-07-30T18:44:09;21.62;79.81
68274;SHT30;55104;47.356;19.448;2023-07-30T18:47:11;21.53;80.36
68274;SHT30;55104;47.356;19.448;2023-07-30T18:50:13;21.50;80.42
68274;SHT30;55104;47.356;19.448;2023-07-30T18:53:15;21.43;80.63
68274;SHT30;55104;47.356;19.448;2023-07-30T18:56:18;21.37;81.09
68274;SHT30;55104;47.356;19.448;2023-07-30T18:59:20;21.27;81.16